sensor_id;sensor_type;location;lat;lon;timestamp;temperature;humidity
56861;DHT22;42744;51.094;3.490;2023-06-22T00:01:43;17.00;99.90
56861;DHT22;42744;51.094;3.490;2023-06-22T00:04:09;16.90;99.90
56861;DHT22;42744;51.094;3.490;2023-06-22T00:06:35;16.90;99.90
56861;DHT22;42744;51.094;3.490;2023-06-22T00:09:01;16.80;99.90
56861;DHT22;42744;51.094;3.490;2023-06-22T00:11:27;16.80;99.90
56861;DHT22;42744;51.094;3.490;2023-06-22T00:13:53;16.80;99.90
56861;DHT22;42744;51.094;3.490;2023-06-22T00:16:19;16.70;99.90
56861;DHT22;42744;51.094;3.490;2023-06-22T00:18:45;16.70;99.90
56861;DHT22;42744;51.094;3.490;2023-06-22T00:21:13;16.70;99.90
56861;DHT22;42744;51.094;3.490;2023-06-22T00:23:39;16.60;99.90
56861;DHT22;42744;51.094;3.490;2023-06-22T00:26:05;16.60;99.90
56861;DHT22;42744;51.094;3.490;2023-06-22T00:28:31;16.50;99.90
56861;DHT22;42744;51.094;3.490;2023-06-22T00:30:56;16.50;99.90
56861;DHT22;42744;51.094;3.490;2023-06-22T00:33:24;16.50;99.90
56861;DHT22;42744;51.094;3.490;2023-06-22T00:35:50;16.50;99.90
56861;DHT22;42744;51.094;3.490;2023-06-22T00:38:18;16.50;99.90
56861;DHT22;42744;51.094;3.490;2023-06-22T00:40:44;16.50;99.90
56861;DHT22;42744;51.094;3.490;2023-06-22T00:43:10;16.50;99.90
56861;DHT22;42744;51.094;3.490;2023-06-22T00:45:36;16.40;99.90
56861;DHT22;42744;51.094;3.490;2023-06-22T00:48:03;16.40;99.90
56861;DHT22;42744;51.094;3.490;2023-06-22T00:50:32;16.30;99.90
56861;DHT22;42744;51.094;3.490;2023-06-22T00:53:07;16.30;99.90
56861;DHT22;42744;51.094;3.490;2023-06-22T00:55:42;16.20;99.90
56861;DHT22;42744;51.094;3.490;2023-06-22T00:58:13;16.20;99.90
56861;DHT22;42744;51.094;3.490;2023-06-22T01:00:41;16.20;99.90
56861;DHT22;42744;51.094;3.490;2023-06-22T01:03:07;16.20;99.90
56861;DHT22;42744;51.094;3.490;2023-06-22T01:05:35;16.20;99.90
56861;DHT22;42744;51.094;3.490;2023-06-22T01:11:07;16.10;99.90
56861;DHT22;42744;51.094;3.490;2023-06-22T01:16:29;16.10;99.90
56861;DHT22;42744;51.094;3.490;2023-06-22T01:18:57;16.10;99.90
56861;DHT22;42744;51.094;3.490;2023-06-22T01:21:29;16.10;99.90
56861;DHT22;42744;51.094;3.490;2023-06-22T01:24:23;16.10;99.90
56861;DHT22;42744;51.094;3.490;2023-06-22T01:29:17;16.10;99.90
56861;DHT22;42744;51.094;3.490;2023-06-22T01:31:43;16.10;99.90
56861;DHT22;42744;51.094;3.490;2023-06-22T01:34:12;16.00;99.90
56861;DHT22;42744;51.094;3.490;2023-06-22T01:36:39;16.00;99.90
56861;DHT22;42744;51.094;3.490;2023-06-22T01:39:06;16.00;99.90
56861;DHT22;42744;51.094;3.490;2023-06-22T01:41:36;16.00;99.90
56861;DHT22;42744;51.094;3.490;2023-06-22T01:44:05;16.00;99.90
56861;DHT22;42744;51.094;3.490;2023-06-22T01:46:34;16.00;99.90
56861;DHT22;42744;51.094;3.490;2023-06-22T01:49:02;16.00;99.90
56861;DHT22;42744;51.094;3.490;2023-06-22T01:51:28;16.00;99.90
56861;DHT22;42744;51.094;3.490;2023-06-22T01:53:55;16.00;99.90
56861;DHT22;42744;51.094;3.490;2023-06-22T01:56:20;15.90;99.90
56861;DHT22;42744;51.094;3.490;2023-06-22T01:59:09;15.80;99.90
56861;DHT22;42744;51.094;3.490;2023-06-22T02:01:43;15.80;99.90
56861;DHT22;42744;51.094;3.490;2023-06-22T02:04:22;15.70;99.90
56861;DHT22;42744;51.094;3.490;2023-06-22T02:06:53;15.70;99.90
56861;DHT22;42744;51.094;3.490;2023-06-22T02:09:32;15.70;99.90
56861;DHT22;42744;51.094;3.490;2023-06-22T02:12:08;15.70;99.90
56861;DHT22;42744;51.094;3.490;2023-06-22T02:14:36;15.60;99.90
56861;DHT22;42744;51.094;3.490;2023-06-22T02:17:02;15.60;99.90
56861;DHT22;42744;51.094;3.490;2023-06-22T02:19:30;15.60;99.90
56861;DHT22;42744;51.094;3.490;2023-06-22T02:21:58;15.60;99.90
56861;DHT22;42744;51.094;3.490;2023-06-22T02:24:24;15.60;99.90
56861;DHT22;42744;51.094;3.490;2023-06-22T02:26:50;15.50;99.90
56861;DHT22;42744;51.094;3.490;2023-06-22T02:29:16;15.50;99.90
56861;DHT22;42744;51.094;3.490;2023-06-22T02:31:43;15.50;99.90
56861;DHT22;42744;51.094;3.490;2023-06-22T02:34:09;15.50;99.90
56861;DHT22;42744;51.094;3.490;2023-06-22T02:36:35;15.50;99.90
56861;DHT22;42744;51.094;3.490;2023-06-22T02:39:01;15.50;99.90
56861;DHT22;42744;51.094;3.490;2023-06-22T02:41:29;15.50;99.90
56861;DHT22;42744;51.094;3.490;2023-06-22T02:43:55;15.40;99.90
56861;DHT22;42744;51.094;3.490;2023-06-22T02:46:21;15.40;99.90
56861;DHT22;42744;51.094;3.490;2023-06-22T02:48:48;15.40;99.90
56861;DHT22;42744;51.094;3.490;2023-06-22T02:51:14;15.30;99.90
56861;DHT22;42744;51.094;3.490;2023-06-22T02:53:41;15.30;99.90
56861;DHT22;42744;51.094;3.490;2023-06-22T02:56:11;15.20;99.90
56861;DHT22;42744;51.094;3.490;2023-06-22T02:58:38;15.30;99.90
56861;DHT22;42744;51.094;3.490;2023-06-22T03:01:05;15.20;99.90
56861;DHT22;42744;51.094;3.490;2023-06-22T03:03:32;15.30;99.90
56861;DHT22;42744;51.094;3.490;2023-06-22T03:05:58;15.20;99.90
56861;DHT22;42744;51.094;3.490;2023-06-22T03:08:27;15.20;99.90
56861;DHT22;42744;51.094;3.490;2023-06-22T03:10:53;15.20;99.90
56861;DHT22;42744;51.094;3.490;2023-06-22T03:13:19;15.20;99.90
56861;DHT22;42744;51.094;3.490;2023-06-22T03:15:45;15.10;99.90
56861;DHT22;42744;51.094;3.490;2023-06-22T03:18:11;15.10;99.90
56861;DHT22;42744;51.094;3.490;2023-06-22T03:20:37;15.10;99.90
56861;DHT22;42744;51.094;3.490;2023-06-22T03:23:03;15.10;99.90
56861;DHT22;42744;51.094;3.490;2023-06-22T03:25:31;15.00;99.90
56861;DHT22;42744;51.094;3.490;2023-06-22T03:28:00;15.10;99.90
56861;DHT22;42744;51.094;3.490;2023-06-22T03:30:26;15.10;99.90
56861;DHT22;42744;51.094;3.490;2023-06-22T03:32:52;15.10;99.90
56861;DHT22;42744;51.094;3.490;2023-06-22T03:35:18;15.00;99.90
56861;DHT22;42744;51.094;3.490;2023-06-22T03:37:45;15.10;99.90
56861;DHT22;42744;51.094;3.490;2023-06-22T03:40:12;15.10;99.90
56861;DHT22;42744;51.094;3.490;2023-06-22T03:42:39;15.10;99.90
56861;DHT22;42744;51.094;3.490;2023-06-22T03:45:05;15.00;99.90
56861;DHT22;42744;51.094;3.490;2023-06-22T03:47:32;15.00;99.90
56861;DHT22;42744;51.094;3.490;2023-06-22T03:49:59;15.00;99.90
56861;DHT22;42744;51.094;3.490;2023-06-22T03:52:24;15.00;99.90
56861;DHT22;42744;51.094;3.490;2023-06-22T03:54:51;15.10;99.90
56861;DHT22;42744;51.094;3.490;2023-06-22T03:57:17;15.10;99.90
56861;DHT22;42744;51.094;3.490;2023-06-22T03:59:43;15.10;99.90
56861;DHT22;42744;51.094;3.490;2023-06-22T04:02:09;15.10;99.90
56861;DHT22;42744;51.094;3.490;2023-06-22T04:04:35;15.20;99.90
56861;DHT22;42744;51.094;3.490;2023-06-22T04:07:01;15.20;99.90
56861;DHT22;42744;51.094;3.490;2023-06-22T04:09:27;15.20;99.90
56861;DHT22;42744;51.094;3.490;2023-06-22T04:11:53;15.10;99.90
56861;DHT22;42744;51.094;3.490;2023-06-22T04:14:19;15.10;99.90
56861;DHT22;42744;51.094;3.490;2023-06-22T04:16:45;15.20;99.90
56861;DHT22;42744;51.094;3.490;2023-06-22T04:19:11;15.20;99.90
56861;DHT22;42744;51.094;3.490;2023-06-22T04:21:43;15.30;99.90
56861;DHT22;42744;51.094;3.490;2023-06-22T04:24:10;15.30;99.90
56861;DHT22;42744;51.094;3.490;2023-06-22T04:26:43;15.30;99.90
56861;DHT22;42744;51.094;3.490;2023-06-22T04:29:11;15.30;99.90
56861;DHT22;42744;51.094;3.490;2023-06-22T04:31:37;15.30;99.90
56861;DHT22;42744;51.094;3.490;2023-06-22T04:34:05;15.30;99.90
56861;DHT22;42744;51.094;3.490;2023-06-22T04:36:37;15.40;99.90
56861;DHT22;42744;51.094;3.490;2023-06-22T04:39:05;15.40;99.90
56861;DHT22;42744;51.094;3.490;2023-06-22T04:41:31;15.50;99.90
56861;DHT22;42744;51.094;3.490;2023-06-22T04:44:11;15.60;99.90
56861;DHT22;42744;51.094;3.490;2023-06-22T04:46:37;15.60;99.90
56861;DHT22;42744;51.094;3.490;2023-06-22T04:49:07;15.60;99.90
56861;DHT22;42744;51.094;3.490;2023-06-22T04:51:39;15.70;99.90
56861;DHT22;42744;51.094;3.490;2023-06-22T04:54:05;15.70;99.90
56861;DHT22;42744;51.094;3.490;2023-06-22T04:56:32;15.80;99.90
56861;DHT22;42744;51.094;3.490;2023-06-22T04:59:07;15.90;99.90
56861;DHT22;42744;51.094;3.490;2023-06-22T05:01:34;16.00;99.90
56861;DHT22;42744;51.094;3.490;2023-06-22T05:04:01;16.10;99.90
56861;DHT22;42744;51.094;3.490;2023-06-22T05:06:29;16.10;99.90
56861;DHT22;42744;51.094;3.490;2023-06-22T05:08:55;16.20;99.90
56861;DHT22;42744;51.094;3.490;2023-06-22T05:11:28;16.30;99.90
56861;DHT22;42744;51.094;3.490;2023-06-22T05:13:55;16.40;99.90
56861;DHT22;42744;51.094;3.490;2023-06-22T05:16:21;16.40;99.90
56861;DHT22;42744;51.094;3.490;2023-06-22T05:18:53;16.50;99.90
56861;DHT22;42744;51.094;3.490;2023-06-22T05:21:24;16.60;99.90
56861;DHT22;42744;51.094;3.490;2023-06-22T05:23:51;16.70;99.90
56861;DHT22;42744;51.094;3.490;2023-06-22T05:26:18;16.80;99.90
56861;DHT22;42744;51.094;3.490;2023-06-22T05:28:44;16.80;99.90
56861;DHT22;42744;51.094;3.490;2023-06-22T05:31:14;16.80;99.90
56861;DHT22;42744;51.094;3.490;2023-06-22T05:33:41;16.90;99.90
56861;DHT22;42744;51.094;3.490;2023-06-22T05:36:08;17.00;99.90
56861;DHT22;42744;51.094;3.490;2023-06-22T05:38:35;17.00;99.90
56861;DHT22;42744;51.094;3.490;2023-06-22T05:41:01;17.00;99.90
56861;DHT22;42744;51.094;3.490;2023-06-22T05:43:27;17.10;99.90
56861;DHT22;42744;51.094;3.490;2023-06-22T05:45:54;17.10;99.90
56861;DHT22;42744;51.094;3.490;2023-06-22T05:48:20;17.20;99.90
56861;DHT22;42744;51.094;3.490;2023-06-22T05:50:46;17.30;99.90
56861;DHT22;42744;51.094;3.490;2023-06-22T05:53:12;17.30;99.90
56861;DHT22;42744;51.094;3.490;2023-06-22T05:55:38;17.40;99.90
56861;DHT22;42744;51.094;3.490;2023-06-22T05:58:04;17.50;99.90
56861;DHT22;42744;51.094;3.490;2023-06-22T06:00:30;17.50;99.90
56861;DHT22;42744;51.094;3.490;2023-06-22T06:02:56;17.60;99.90
56861;DHT22;42744;51.094;3.490;2023-06-22T06:05:22;17.60;99.90
56861;DHT22;42744;51.094;3.490;2023-06-22T06:07:49;17.70;99.90
56861;DHT22;42744;51.094;3.490;2023-06-22T06:10:15;17.70;99.90
56861;DHT22;42744;51.094;3.490;2023-06-22T06:12:41;17.90;99.90
56861;DHT22;42744;51.094;3.490;2023-06-22T06:15:07;17.90;99.90
56861;DHT22;42744;51.094;3.490;2023-06-22T06:17:34;18.00;99.90
56861;DHT22;42744;51.094;3.490;2023-06-22T06:20:00;18.00;99.90
56861;DHT22;42744;51.094;3.490;2023-06-22T06:22:26;18.10;99.90
56861;DHT22;42744;51.094;3.490;2023-06-22T06:24:52;18.20;99.90
56861;DHT22;42744;51.094;3.490;2023-06-22T06:27:18;18.20;99.90
56861;DHT22;42744;51.094;3.490;2023-06-22T06:29:44;18.30;99.90
56861;DHT22;42744;51.094;3.490;2023-06-22T06:32:13;18.40;99.90
56861;DHT22;42744;51.094;3.490;2023-06-22T06:34:40;18.40;99.90
56861;DHT22;42744;51.094;3.490;2023-06-22T06:37:06;18.50;99.90
56861;DHT22;42744;51.094;3.490;2023-06-22T06:39:32;18.50;99.90
56861;DHT22;42744;51.094;3.490;2023-06-22T06:41:58;18.60;99.90
56861;DHT22;42744;51.094;3.490;2023-06-22T06:44:24;18.70;99.90
56861;DHT22;42744;51.094;3.490;2023-06-22T06:46:50;18.80;99.90
56861;DHT22;42744;51.094;3.490;2023-06-22T06:49:16;18.80;99.90
56861;DHT22;42744;51.094;3.490;2023-06-22T06:51:41;18.90;99.90
56861;DHT22;42744;51.094;3.490;2023-06-22T06:54:08;19.00;99.90
56861;DHT22;42744;51.094;3.490;2023-06-22T06:56:33;19.00;99.90
56861;DHT22;42744;51.094;3.490;2023-06-22T06:58:59;19.10;99.90
56861;DHT22;42744;51.094;3.490;2023-06-22T07:01:25;19.20;99.90
56861;DHT22;42744;51.094;3.490;2023-06-22T07:03:51;19.20;99.90
56861;DHT22;42744;51.094;3.490;2023-06-22T07:06:17;19.30;99.90
56861;DHT22;42744;51.094;3.490;2023-06-22T07:08:43;19.40;99.90
56861;DHT22;42744;51.094;3.490;2023-06-22T07:11:09;19.50;99.90
56861;DHT22;42744;51.094;3.490;2023-06-22T07:13:35;19.60;99.90
56861;DHT22;42744;51.094;3.490;2023-06-22T07:16:01;19.70;99.90
56861;DHT22;42744;51.094;3.490;2023-06-22T07:18:27;19.80;99.90
56861;DHT22;42744;51.094;3.490;2023-06-22T07:20:53;19.80;99.90
56861;DHT22;42744;51.094;3.490;2023-06-22T07:23:20;19.90;99.90
56861;DHT22;42744;51.094;3.490;2023-06-22T07:25:45;20.00;99.90
56861;DHT22;42744;51.094;3.490;2023-06-22T07:28:11;20.10;99.90
56861;DHT22;42744;51.094;3.490;2023-06-22T07:30:37;20.20;99.90
56861;DHT22;42744;51.094;3.490;2023-06-22T07:33:03;20.30;99.90
56861;DHT22;42744;51.094;3.490;2023-06-22T07:35:33;20.40;99.90
56861;DHT22;42744;51.094;3.490;2023-06-22T07:37:59;20.50;99.90
56861;DHT22;42744;51.094;3.490;2023-06-22T07:40:25;20.60;99.90
56861;DHT22;42744;51.094;3.490;2023-06-22T07:42:51;20.60;99.90
56861;DHT22;42744;51.094;3.490;2023-06-22T07:45:19;20.70;99.90
56861;DHT22;42744;51.094;3.490;2023-06-22T07:47:45;20.70;99.90
56861;DHT22;42744;51.094;3.490;2023-06-22T07:50:11;20.80;99.90
56861;DHT22;42744;51.094;3.490;2023-06-22T07:52:37;20.90;99.90
56861;DHT22;42744;51.094;3.490;2023-06-22T07:55:03;20.90;99.90
56861;DHT22;42744;51.094;3.490;2023-06-22T07:57:30;21.00;99.90
56861;DHT22;42744;51.094;3.490;2023-06-22T08:00:00;21.00;99.90
56861;DHT22;42744;51.094;3.490;2023-06-22T08:02:27;21.10;99.90
56861;DHT22;42744;51.094;3.490;2023-06-22T08:04:53;21.10;99.90
56861;DHT22;42744;51.094;3.490;2023-06-22T08:07:19;21.20;99.90
56861;DHT22;42744;51.094;3.490;2023-06-22T08:09:48;21.20;99.90
56861;DHT22;42744;51.094;3.490;2023-06-22T08:12:15;21.20;99.90
56861;DHT22;42744;51.094;3.490;2023-06-22T08:14:42;21.30;99.90
56861;DHT22;42744;51.094;3.490;2023-06-22T08:17:09;21.30;99.90
56861;DHT22;42744;51.094;3.490;2023-06-22T08:19:37;21.30;99.90
56861;DHT22;42744;51.094;3.490;2023-06-22T08:22:03;21.30;99.90
56861;DHT22;42744;51.094;3.490;2023-06-22T08:24:29;21.30;99.90
56861;DHT22;42744;51.094;3.490;2023-06-22T08:26:56;21.30;99.90
56861;DHT22;42744;51.094;3.490;2023-06-22T08:29:22;21.30;99.90
56861;DHT22;42744;51.094;3.490;2023-06-22T08:31:48;21.40;99.90
56861;DHT22;42744;51.094;3.490;2023-06-22T08:34:14;21.40;99.90
56861;DHT22;42744;51.094;3.490;2023-06-22T08:36:40;21.40;99.90
56861;DHT22;42744;51.094;3.490;2023-06-22T08:39:08;21.30;99.90
56861;DHT22;42744;51.094;3.490;2023-06-22T08:41:35;21.40;99.90
56861;DHT22;42744;51.094;3.490;2023-06-22T08:44:01;21.40;99.90
56861;DHT22;42744;51.094;3.490;2023-06-22T08:46:27;21.40;99.90
56861;DHT22;42744;51.094;3.490;2023-06-22T08:48:58;21.40;99.90
56861;DHT22;42744;51.094;3.490;2023-06-22T08:51:24;21.50;99.90
56861;DHT22;42744;51.094;3.490;2023-06-22T08:53:50;21.50;99.90
56861;DHT22;42744;51.094;3.490;2023-06-22T08:56:16;21.50;99.90
56861;DHT22;42744;51.094;3.490;2023-06-22T08:58:42;21.60;99.90
56861;DHT22;42744;51.094;3.490;2023-06-22T09:01:08;21.60;99.90
56861;DHT22;42744;51.094;3.490;2023-06-22T09:03:34;21.60;99.90
56861;DHT22;42744;51.094;3.490;2023-06-22T09:06:02;21.60;99.90
56861;DHT22;42744;51.094;3.490;2023-06-22T09:08:28;21.50;99.90
56861;DHT22;42744;51.094;3.490;2023-06-22T09:10:55;21.50;99.90
56861;DHT22;42744;51.094;3.490;2023-06-22T09:13:21;21.50;99.90
56861;DHT22;42744;51.094;3.490;2023-06-22T09:15:48;21.50;99.90
56861;DHT22;42744;51.094;3.490;2023-06-22T09:18:14;21.50;99.90
56861;DHT22;42744;51.094;3.490;2023-06-22T09:20:40;21.50;99.90
56861;DHT22;42744;51.094;3.490;2023-06-22T09:23:06;21.50;99.90
56861;DHT22;42744;51.094;3.490;2023-06-22T09:25:32;21.50;99.90
56861;DHT22;42744;51.094;3.490;2023-06-22T09:27:58;21.50;99.90
56861;DHT22;42744;51.094;3.490;2023-06-22T09:30:24;21.50;99.90
56861;DHT22;42744;51.094;3.490;2023-06-22T09:32:50;21.50;99.90
56861;DHT22;42744;51.094;3.490;2023-06-22T09:35:16;21.50;99.90
56861;DHT22;42744;51.094;3.490;2023-06-22T09:37:42;21.50;99.90
56861;DHT22;42744;51.094;3.490;2023-06-22T09:40:09;21.50;99.90
56861;DHT22;42744;51.094;3.490;2023-06-22T09:42:39;21.50;99.90
56861;DHT22;42744;51.094;3.490;2023-06-22T09:45:05;21.50;99.90
56861;DHT22;42744;51.094;3.490;2023-06-22T09:47:31;21.40;99.90
56861;DHT22;42744;51.094;3.490;2023-06-22T09:49:57;21.40;99.90
56861;DHT22;42744;51.094;3.490;2023-06-22T09:52:25;21.40;99.90
56861;DHT22;42744;51.094;3.490;2023-06-22T09:54:51;21.40;99.90
56861;DHT22;42744;51.094;3.490;2023-06-22T09:57:17;21.40;99.90
56861;DHT22;42744;51.094;3.490;2023-06-22T09:59:43;21.40;99.90
56861;DHT22;42744;51.094;3.490;2023-06-22T10:02:09;21.40;99.90
56861;DHT22;42744;51.094;3.490;2023-06-22T10:04:35;21.40;99.90
56861;DHT22;42744;51.094;3.490;2023-06-22T10:07:02;21.40;99.90
56861;DHT22;42744;51.094;3.490;2023-06-22T10:09:28;21.40;99.90
56861;DHT22;42744;51.094;3.490;2023-06-22T10:11:54;21.40;99.90
56861;DHT22;42744;51.094;3.490;2023-06-22T10:14:20;21.40;99.90
56861;DHT22;42744;51.094;3.490;2023-06-22T10:16:47;21.40;99.90
56861;DHT22;42744;51.094;3.490;2023-06-22T10:19:14;21.40;99.90
56861;DHT22;42744;51.094;3.490;2023-06-22T10:21:39;21.40;99.90
56861;DHT22;42744;51.094;3.490;2023-06-22T10:24:05;21.30;99.90
56861;DHT22;42744;51.094;3.490;2023-06-22T10:26:32;21.40;99.90
56861;DHT22;42744;51.094;3.490;2023-06-22T10:28:59;21.40;99.90
56861;DHT22;42744;51.094;3.490;2023-06-22T10:31:25;21.40;99.90
56861;DHT22;42744;51.094;3.490;2023-06-22T10:33:51;21.40;99.90
56861;DHT22;42744;51.094;3.490;2023-06-22T10:36:17;21.30;99.90
56861;DHT22;42744;51.094;3.490;2023-06-22T10:38:43;21.30;99.90
56861;DHT22;42744;51.094;3.490;2023-06-22T10:41:09;21.30;99.90
56861;DHT22;42744;51.094;3.490;2023-06-22T10:43:35;21.30;99.90
56861;DHT22;42744;51.094;3.490;2023-06-22T10:46:01;21.30;99.90
56861;DHT22;42744;51.094;3.490;2023-06-22T10:48:27;21.30;99.90
56861;DHT22;42744;51.094;3.490;2023-06-22T10:50:53;21.30;99.90
56861;DHT22;42744;51.094;3.490;2023-06-22T10:53:20;21.30;99.90
56861;DHT22;42744;51.094;3.490;2023-06-22T10:55:46;21.30;99.90
56861;DHT22;42744;51.094;3.490;2023-06-22T10:58:12;21.30;99.90
56861;DHT22;42744;51.094;3.490;2023-06-22T11:00:38;21.30;99.90
56861;DHT22;42744;51.094;3.490;2023-06-22T11:03:04;21.30;99.90
56861;DHT22;42744;51.094;3.490;2023-06-22T11:05:30;21.20;99.90
56861;DHT22;42744;51.094;3.490;2023-06-22T11:07:56;21.30;99.90
56861;DHT22;42744;51.094;3.490;2023-06-22T11:10:22;21.30;99.90
56861;DHT22;42744;51.094;3.490;2023-06-22T11:12:48;21.30;99.90
56861;DHT22;42744;51.094;3.490;2023-06-22T11:15:14;21.30;99.90
56861;DHT22;42744;51.094;3.490;2023-06-22T11:17:40;21.30;99.90
56861;DHT22;42744;51.094;3.490;2023-06-22T11:20:06;21.30;99.90
56861;DHT22;42744;51.094;3.490;2023-06-22T11:22:38;21.30;99.90
56861;DHT22;42744;51.094;3.490;2023-06-22T11:25:05;21.30;99.90
56861;DHT22;42744;51.094;3.490;2023-06-22T11:27:32;21.30;99.90
56861;DHT22;42744;51.094;3.490;2023-06-22T11:29:58;21.30;99.90
56861;DHT22;42744;51.094;3.490;2023-06-22T11:32:24;21.20;99.90
56861;DHT22;42744;51.094;3.490;2023-06-22T11:34:50;21.20;99.90
56861;DHT22;42744;51.094;3.490;2023-06-22T11:37:16;21.30;99.90
56861;DHT22;42744;51.094;3.490;2023-06-22T11:39:42;21.20;99.90
56861;DHT22;42744;51.094;3.490;2023-06-22T11:42:09;21.20;99.90
56861;DHT22;42744;51.094;3.490;2023-06-22T11:44:35;21.10;99.90
56861;DHT22;42744;51.094;3.490;2023-06-22T11:47:02;21.10;99.90
56861;DHT22;42744;51.094;3.490;2023-06-22T11:49:33;21.10;99.90
56861;DHT22;42744;51.094;3.490;2023-06-22T11:51:58;21.10;99.90
56861;DHT22;42744;51.094;3.490;2023-06-22T11:54:25;21.10;99.90
56861;DHT22;42744;51.094;3.490;2023-06-22T11:56:50;21.10;99.90
56861;DHT22;42744;51.094;3.490;2023-06-22T11:59:16;21.00;99.90
56861;DHT22;42744;51.094;3.490;2023-06-22T12:01:42;21.00;99.90
56861;DHT22;42744;51.094;3.490;2023-06-22T12:04:09;21.00;99.90
56861;DHT22;42744;51.094;3.490;2023-06-22T12:06:38;21.00;99.90
56861;DHT22;42744;51.094;3.490;2023-06-22T12:09:07;21.00;99.90
56861;DHT22;42744;51.094;3.490;2023-06-22T12:11:33;21.00;99.90
56861;DHT22;42744;51.094;3.490;2023-06-22T12:13:59;21.00;99.90
56861;DHT22;42744;51.094;3.490;2023-06-22T12:16:28;21.10;99.90
56861;DHT22;42744;51.094;3.490;2023-06-22T12:18:54;21.10;99.90
56861;DHT22;42744;51.094;3.490;2023-06-22T12:21:20;21.10;99.90
56861;DHT22;42744;51.094;3.490;2023-06-22T12:23:46;21.10;99.90
56861;DHT22;42744;51.094;3.490;2023-06-22T12:26:12;21.10;99.90
56861;DHT22;42744;51.094;3.490;2023-06-22T12:28:38;21.10;99.90
56861;DHT22;42744;51.094;3.490;2023-06-22T12:31:04;21.10;99.90
56861;DHT22;42744;51.094;3.490;2023-06-22T12:33:30;21.00;99.90
56861;DHT22;42744;51.094;3.490;2023-06-22T12:35:56;21.00;99.90
56861;DHT22;42744;51.094;3.490;2023-06-22T12:38:22;21.00;99.90
56861;DHT22;42744;51.094;3.490;2023-06-22T12:40:51;21.00;99.90
56861;DHT22;42744;51.094;3.490;2023-06-22T12:43:18;20.90;99.90
56861;DHT22;42744;51.094;3.490;2023-06-22T12:45:44;21.00;99.90
56861;DHT22;42744;51.094;3.490;2023-06-22T12:48:10;20.90;99.90
56861;DHT22;42744;51.094;3.490;2023-06-22T12:50:36;20.90;99.90
56861;DHT22;42744;51.094;3.490;2023-06-22T12:53:02;20.90;99.90
56861;DHT22;42744;51.094;3.490;2023-06-22T12:55:30;20.90;99.90
56861;DHT22;42744;51.094;3.490;2023-06-22T12:57:56;20.90;99.90
56861;DHT22;42744;51.094;3.490;2023-06-22T13:00:22;20.90;99.90
56861;DHT22;42744;51.094;3.490;2023-06-22T13:02:48;20.90;99.90
56861;DHT22;42744;51.094;3.490;2023-06-22T13:05:14;20.90;99.90
56861;DHT22;42744;51.094;3.490;2023-06-22T13:07:40;20.90;99.90
56861;DHT22;42744;51.094;3.490;2023-06-22T13:10:08;21.00;99.90
56861;DHT22;42744;51.094;3.490;2023-06-22T13:12:34;21.00;99.90
56861;DHT22;42744;51.094;3.490;2023-06-22T13:15:00;21.10;99.90
56861;DHT22;42744;51.094;3.490;2023-06-22T13:17:26;21.00;99.90
56861;DHT22;42744;51.094;3.490;2023-06-22T13:19:52;21.10;99.90
56861;DHT22;42744;51.094;3.490;2023-06-22T13:22:34;21.10;99.90
56861;DHT22;42744;51.094;3.490;2023-06-22T13:25:09;21.10;99.90
56861;DHT22;42744;51.094;3.490;2023-06-22T13:27:39;21.10;99.90
56861;DHT22;42744;51.094;3.490;2023-06-22T13:30:06;21.10;99.90
56861;DHT22;42744;51.094;3.490;2023-06-22T13:32:32;21.10;99.90
56861;DHT22;42744;51.094;3.490;2023-06-22T13:34:58;21.10;99.90
56861;DHT22;42744;51.094;3.490;2023-06-22T13:37:25;21.10;99.90
56861;DHT22;42744;51.094;3.490;2023-06-22T13:39:52;21.00;99.90
56861;DHT22;42744;51.094;3.490;2023-06-22T13:42:17;21.10;99.90
56861;DHT22;42744;51.094;3.490;2023-06-22T13:44:43;21.00;99.90
56861;DHT22;42744;51.094;3.490;2023-06-22T13:47:09;21.10;99.90
56861;DHT22;42744;51.094;3.490;2023-06-22T13:49:35;21.10;99.90
56861;DHT22;42744;51.094;3.490;2023-06-22T13:52:01;21.10;99.90
56861;DHT22;42744;51.094;3.490;2023-06-22T13:54:29;21.10;99.90
56861;DHT22;42744;51.094;3.490;2023-06-22T13:56:55;21.10;99.90
56861;DHT22;42744;51.094;3.490;2023-06-22T13:59:21;21.00;99.90
56861;DHT22;42744;51.094;3.490;2023-06-22T14:01:47;20.90;99.90
56861;DHT22;42744;51.094;3.490;2023-06-22T14:04:13;20.90;99.90
56861;DHT22;42744;51.094;3.490;2023-06-22T14:06:39;20.90;99.90
56861;DHT22;42744;51.094;3.490;2023-06-22T14:09:05;20.90;99.90
56861;DHT22;42744;51.094;3.490;2023-06-22T14:11:32;21.00;99.90
56861;DHT22;42744;51.094;3.490;2023-06-22T14:13:57;21.00;99.90
56861;DHT22;42744;51.094;3.490;2023-06-22T14:16:23;21.00;99.90
56861;DHT22;42744;51.094;3.490;2023-06-22T14:18:49;21.10;99.90
56861;DHT22;42744;51.094;3.490;2023-06-22T14:21:15;21.20;99.90
56861;DHT22;42744;51.094;3.490;2023-06-22T14:23:41;21.30;99.90
56861;DHT22;42744;51.094;3.490;2023-06-22T14:26:08;21.30;99.90
56861;DHT22;42744;51.094;3.490;2023-06-22T14:28:33;21.20;99.90
56861;DHT22;42744;51.094;3.490;2023-06-22T14:30:59;21.10;99.90
56861;DHT22;42744;51.094;3.490;2023-06-22T14:33:25;21.20;99.90
56861;DHT22;42744;51.094;3.490;2023-06-22T14:35:51;21.30;99.90
56861;DHT22;42744;51.094;3.490;2023-06-22T14:38:17;21.40;99.90
56861;DHT22;42744;51.094;3.490;2023-06-22T14:40:44;21.50;99.90
56861;DHT22;42744;51.094;3.490;2023-06-22T14:43:10;21.50;99.90
56861;DHT22;42744;51.094;3.490;2023-06-22T14:45:35;21.60;99.90
56861;DHT22;42744;51.094;3.490;2023-06-22T14:48:02;21.60;99.90
56861;DHT22;42744;51.094;3.490;2023-06-22T14:50:27;21.60;99.90
56861;DHT22;42744;51.094;3.490;2023-06-22T14:52:53;21.70;99.90
56861;DHT22;42744;51.094;3.490;2023-06-22T14:55:20;21.70;99.90
56861;DHT22;42744;51.094;3.490;2023-06-22T14:57:46;21.70;99.90
56861;DHT22;42744;51.094;3.490;2023-06-22T15:00:12;21.70;99.90
56861;DHT22;42744;51.094;3.490;2023-06-22T15:02:39;21.60;99.90
56861;DHT22;42744;51.094;3.490;2023-06-22T15:05:06;21.60;99.90
56861;DHT22;42744;51.094;3.490;2023-06-22T15:07:32;21.50;99.90
56861;DHT22;42744;51.094;3.490;2023-06-22T15:09:58;21.50;99.90
56861;DHT22;42744;51.094;3.490;2023-06-22T15:12:24;21.60;99.90
56861;DHT22;42744;51.094;3.490;2023-06-22T15:14:50;21.60;99.90
56861;DHT22;42744;51.094;3.490;2023-06-22T15:17:16;21.60;99.90
56861;DHT22;42744;51.094;3.490;2023-06-22T15:19:42;21.60;99.90
56861;DHT22;42744;51.094;3.490;2023-06-22T15:22:08;21.60;99.90
56861;DHT22;42744;51.094;3.490;2023-06-22T15:24:34;21.50;99.90
56861;DHT22;42744;51.094;3.490;2023-06-22T15:27:00;21.50;99.90
56861;DHT22;42744;51.094;3.490;2023-06-22T15:29:26;21.50;99.90
56861;DHT22;42744;51.094;3.490;2023-06-22T15:31:53;21.50;99.90
56861;DHT22;42744;51.094;3.490;2023-06-22T15:34:19;21.50;99.90
56861;DHT22;42744;51.094;3.490;2023-06-22T15:36:45;21.50;99.90